sensor_id;sensor_type;location;lat;lon;timestamp;P1;durP1;ratioP1;P2;durP2;ratioP2
62353;SDS011;48391;49.184;2.418;2022-07-01T03:34:40;10.52;;;5.55;;
62353;SDS011;48391;49.184;2.418;2022-07-01T04:54:52;3.08;;;2.53;;
62353;SDS011;48391;49.184;2.418;2022-07-01T04:57:18;2.50;;;2.30;;
62353;SDS011;48391;49.184;2.418;2022-07-01T04:59:44;5.28;;;2.15;;
62353;SDS011;48391;49.184;2.418;2022-07-01T05:02:10;5.72;;;1.75;;
62353;SDS011;48391;49.184;2.418;2022-07-01T05:04:36;1.95;;;1.50;;
62353;SDS011;48391;49.184;2.418;2022-07-01T05:07:02;3.15;;;1.88;;
62353;SDS011;48391;49.184;2.418;2022-07-01T05:09:28;7.85;;;1.63;;
62353;SDS011;48391;49.184;2.418;2022-07-01T05:11:54;2.38;;;1.80;;
62353;SDS011;48391;49.184;2.418;2022-07-01T05:14:20;1.60;;;1.50;;
62353;SDS011;48391;49.184;2.418;2022-07-01T05:16:46;4.45;;;1.73;;
62353;SDS011;48391;49.184;2.418;2022-07-01T05:19:12;2.65;;;1.58;;
62353;SDS011;48391;49.184;2.418;2022-07-01T05:21:57;1.90;;;1.80;;
62353;SDS011;48391;49.184;2.418;2022-07-01T05:24:30;1.60;;;1.50;;
62353;SDS011;48391;49.184;2.418;2022-07-01T05:26:56;5.25;;;1.83;;
62353;SDS011;48391;49.184;2.418;2022-07-01T05:29:23;4.00;;;1.70;;
62353;SDS011;48391;49.184;2.418;2022-07-01T05:31:49;2.63;;;1.75;;
62353;SDS011;48391;49.184;2.418;2022-07-01T05:34:15;11.35;;;2.55;;
62353;SDS011;48391;49.184;2.418;2022-07-01T05:36:41;2.92;;;1.70;;
62353;SDS011;48391;49.184;2.418;2022-07-01T05:39:07;5.25;;;2.20;;
62353;SDS011;48391;49.184;2.418;2022-07-01T05:41:33;3.72;;;2.45;;
62353;SDS011;48391;49.184;2.418;2022-07-01T05:43:59;2.78;;;1.77;;
62353;SDS011;48391;49.184;2.418;2022-07-01T05:46:26;3.65;;;2.17;;
62353;SDS011;48391;49.184;2.418;2022-07-01T05:48:52;3.13;;;2.00;;
62353;SDS011;48391;49.184;2.418;2022-07-01T05:51:18;3.30;;;2.90;;
62353;SDS011;48391;49.184;2.418;2022-07-01T05:53:44;4.80;;;2.25;;
62353;SDS011;48391;49.184;2.418;2022-07-01T05:56:12;2.53;;;1.98;;
62353;SDS011;48391;49.184;2.418;2022-07-01T05:58:38;5.80;;;2.40;;
62353;SDS011;48391;49.184;2.418;2022-07-01T06:01:04;1.73;;;1.63;;
62353;SDS011;48391;49.184;2.418;2022-07-01T06:03:30;5.28;;;2.70;;
62353;SDS011;48391;49.184;2.418;2022-07-01T06:05:56;6.93;;;3.10;;
62353;SDS011;48391;49.184;2.418;2022-07-01T06:08:22;9.35;;;2.70;;
62353;SDS011;48391;49.184;2.418;2022-07-01T06:10:48;8.65;;;2.47;;
62353;SDS011;48391;49.184;2.418;2022-07-01T06:13:14;6.20;;;2.85;;
62353;SDS011;48391;49.184;2.418;2022-07-01T06:15:41;3.30;;;2.15;;
62353;SDS011;48391;49.184;2.418;2022-07-01T06:18:07;4.60;;;2.28;;
62353;SDS011;48391;49.184;2.418;2022-07-01T06:20:33;4.78;;;2.50;;
62353;SDS011;48391;49.184;2.418;2022-07-01T06:22:59;4.55;;;2.92;;
62353;SDS011;48391;49.184;2.418;2022-07-01T06:25:25;4.43;;;2.40;;
62353;SDS011;48391;49.184;2.418;2022-07-01T06:27:51;5.10;;;2.55;;
62353;SDS011;48391;49.184;2.418;2022-07-01T06:30:17;7.25;;;1.77;;
62353;SDS011;48391;49.184;2.418;2022-07-01T06:32:43;4.20;;;1.63;;
62353;SDS011;48391;49.184;2.418;2022-07-01T06:35:09;7.22;;;1.77;;
62353;SDS011;48391;49.184;2.418;2022-07-01T06:37:35;6.05;;;1.70;;
62353;SDS011;48391;49.184;2.418;2022-07-01T06:40:04;1.85;;;0.77;;
62353;SDS011;48391;49.184;2.418;2022-07-01T06:42:31;4.03;;;0.98;;
62353;SDS011;48391;49.184;2.418;2022-07-01T06:44:57;2.70;;;0.82;;
62353;SDS011;48391;49.184;2.418;2022-07-01T06:47:23;5.32;;;1.23;;
62353;SDS011;48391;49.184;2.418;2022-07-01T06:49:49;1.77;;;0.70;;
62353;SDS011;48391;49.184;2.418;2022-07-01T06:52:15;4.53;;;0.82;;
62353;SDS011;48391;49.184;2.418;2022-07-01T06:54:41;6.40;;;0.98;;
62353;SDS011;48391;49.184;2.418;2022-07-01T06:57:07;4.82;;;1.20;;
62353;SDS011;48391;49.184;2.418;2022-07-01T06:59:34;5.43;;;0.77;;
62353;SDS011;48391;49.184;2.418;2022-07-01T07:02:00;2.70;;;0.80;;
62353;SDS011;48391;49.184;2.418;2022-07-01T07:04:26;5.93;;;1.13;;
62353;SDS011;48391;49.184;2.418;2022-07-01T07:06:52;6.22;;;1.48;;
62353;SDS011;48391;49.184;2.418;2022-07-01T07:09:18;4.55;;;1.17;;
62353;SDS011;48391;49.184;2.418;2022-07-01T07:11:44;3.75;;;1.00;;
62353;SDS011;48391;49.184;2.418;2022-07-01T07:14:10;3.97;;;0.90;;
62353;SDS011;48391;49.184;2.418;2022-07-01T07:16:38;4.13;;;1.48;;
62353;SDS011;48391;49.184;2.418;2022-07-01T07:19:04;9.27;;;1.70;;
62353;SDS011;48391;49.184;2.418;2022-07-01T07:21:30;5.93;;;1.80;;
62353;SDS011;48391;49.184;2.418;2022-07-01T07:23:56;7.43;;;1.90;;
62353;SDS011;48391;49.184;2.418;2022-07-01T07:26:22;6.57;;;1.13;;
62353;SDS011;48391;49.184;2.418;2022-07-01T07:28:48;5.00;;;1.40;;
62353;SDS011;48391;49.184;2.418;2022-07-01T07:31:14;5.35;;;1.60;;
62353;SDS011;48391;49.184;2.418;2022-07-01T07:33:40;4.20;;;0.98;;
62353;SDS011;48391;49.184;2.418;2022-07-01T07:36:06;5.07;;;1.25;;
62353;SDS011;48391;49.184;2.418;2022-07-01T07:38:32;2.35;;;1.17;;
62353;SDS011;48391;49.184;2.418;2022-07-01T07:40:58;4.10;;;1.35;;
62353;SDS011;48391;49.184;2.418;2022-07-01T07:43:29;5.15;;;0.80;;
62353;SDS011;48391;49.184;2.418;2022-07-01T07:45:55;8.35;;;0.88;;
62353;SDS011;48391;49.184;2.418;2022-07-01T07:48:21;3.47;;;0.50;;
62353;SDS011;48391;49.184;2.418;2022-07-01T07:50:47;9.82;;;1.50;;
62353;SDS011;48391;49.184;2.418;2022-07-01T07:53:13;9.65;;;1.38;;
62353;SDS011;48391;49.184;2.418;2022-07-01T07:55:39;8.30;;;1.15;;
62353;SDS011;48391;49.184;2.418;2022-07-01T07:58:05;4.10;;;0.70;;
62353;SDS011;48391;49.184;2.418;2022-07-01T08:00:32;4.93;;;0.70;;
62353;SDS011;48391;49.184;2.418;2022-07-01T08:02:58;4.95;;;1.05;;
62353;SDS011;48391;49.184;2.418;2022-07-01T08:05:24;6.97;;;0.55;;
62353;SDS011;48391;49.184;2.418;2022-07-01T08:07:50;5.25;;;0.88;;
62353;SDS011;48391;49.184;2.418;2022-07-01T08:10:16;3.80;;;0.68;;
62353;SDS011;48391;49.184;2.418;2022-07-01T08:12:42;2.28;;;0.40;;
62353;SDS011;48391;49.184;2.418;2022-07-01T08:15:09;4.57;;;0.57;;
62353;SDS011;48391;49.184;2.418;2022-07-01T08:17:35;12.55;;;1.40;;
62353;SDS011;48391;49.184;2.418;2022-07-01T08:20:01;5.50;;;0.63;;
62353;SDS011;48391;49.184;2.418;2022-07-01T08:22:27;3.95;;;0.32;;
62353;SDS011;48391;49.184;2.418;2022-07-01T08:27:19;3.20;;;0.73;;
62353;SDS011;48391;49.184;2.418;2022-07-01T08:29:45;1.48;;;0.40;;
62353;SDS011;48391;49.184;2.418;2022-07-01T08:32:11;7.80;;;1.13;;
62353;SDS011;48391;49.184;2.418;2022-07-01T08:34:37;1.95;;;0.50;;
62353;SDS011;48391;49.184;2.418;2022-07-01T08:37:03;7.68;;;1.25;;
62353;SDS011;48391;49.184;2.418;2022-07-01T08:39:29;6.20;;;0.80;;
62353;SDS011;48391;49.184;2.418;2022-07-01T08:41:56;1.80;;;0.70;;
62353;SDS011;48391;49.184;2.418;2022-07-01T08:44:22;4.25;;;0.80;;
62353;SDS011;48391;49.184;2.418;2022-07-01T08:46:48;1.00;;;0.38;;
62353;SDS011;48391;49.184;2.418;2022-07-01T08:49:15;3.40;;;0.60;;
62353;SDS011;48391;49.184;2.418;2022-07-01T08:51:41;4.82;;;0.30;;
62353;SDS011;48391;49.184;2.418;2022-07-01T08:54:07;4.82;;;0.93;;
62353;SDS011;48391;49.184;2.418;2022-07-01T08:56:33;6.47;;;0.70;;
62353;SDS011;48391;49.184;2.418;2022-07-01T08:59:05;3.22;;;0.85;;
62353;SDS011;48391;49.184;2.418;2022-07-01T09:01:32;2.78;;;0.35;;
62353;SDS011;48391;49.184;2.418;2022-07-01T09:04:12;1.40;;;0.30;;
62353;SDS011;48391;49.184;2.418;2022-07-01T09:06:38;1.73;;;0.57;;
62353;SDS011;48391;49.184;2.418;2022-07-01T09:09:14;1.40;;;0.50;;
62353;SDS011;48391;49.184;2.418;2022-07-01T09:11:44;1.15;;;0.30;;
62353;SDS011;48391;49.184;2.418;2022-07-01T09:14:18;1.48;;;0.22;;
62353;SDS011;48391;49.184;2.418;2022-07-01T09:16:45;1.45;;;0.22;;
62353;SDS011;48391;49.184;2.418;2022-07-01T09:19:12;1.83;;;0.17;;
62353;SDS011;48391;49.184;2.418;2022-07-01T09:21:38;1.52;;;0.30;;
62353;SDS011;48391;49.184;2.418;2022-07-01T09:27:03;3.05;;;0.20;;
62353;SDS011;48391;49.184;2.418;2022-07-01T09:29:51;1.83;;;0.10;;
62353;SDS011;48391;49.184;2.418;2022-07-01T09:32:18;2.92;;;0.30;;
62353;SDS011;48391;49.184;2.418;2022-07-01T09:34:45;3.33;;;0.30;;
62353;SDS011;48391;49.184;2.418;2022-07-01T09:37:12;2.40;;;0.30;;
62353;SDS011;48391;49.184;2.418;2022-07-01T09:39:52;2.65;;;0.40;;
62353;SDS011;48391;49.184;2.418;2022-07-01T09:42:19;3.97;;;0.60;;
62353;SDS011;48391;49.184;2.418;2022-07-01T09:45:02;1.48;;;0.40;;
62353;SDS011;48391;49.184;2.418;2022-07-01T09:47:31;1.50;;;0.40;;
62353;SDS011;48391;49.184;2.418;2022-07-01T09:49:58;6.32;;;0.73;;
62353;SDS011;48391;49.184;2.418;2022-07-01T09:52:24;2.70;;;0.20;;
62353;SDS011;48391;49.184;2.418;2022-07-01T09:54:50;4.18;;;0.30;;
62353;SDS011;48391;49.184;2.418;2022-07-01T09:57:17;2.53;;;0.73;;
62353;SDS011;48391;49.184;2.418;2022-07-01T09:59:44;4.20;;;0.40;;
62353;SDS011;48391;49.184;2.418;2022-07-01T10:02:10;0.93;;;0.20;;
62353;SDS011;48391;49.184;2.418;2022-07-01T10:04:46;5.05;;;0.35;;
62353;SDS011;48391;49.184;2.418;2022-07-01T10:07:29;2.47;;;0.85;;
62353;SDS011;48391;49.184;2.418;2022-07-01T10:10:14;1.15;;;0.40;;
62353;SDS011;48391;49.184;2.418;2022-07-01T10:12:46;2.05;;;0.28;;
62353;SDS011;48391;49.184;2.418;2022-07-01T10:15:15;2.03;;;0.20;;
62353;SDS011;48391;49.184;2.418;2022-07-01T10:17:46;5.57;;;0.50;;
62353;SDS011;48391;49.184;2.418;2022-07-01T10:20:15;1.17;;;0.25;;
62353;SDS011;48391;49.184;2.418;2022-07-01T10:22:43;2.17;;;0.35;;
62353;SDS011;48391;49.184;2.418;2022-07-01T10:30:51;1.52;;;0.45;;
62353;SDS011;48391;49.184;2.418;2022-07-01T10:33:27;2.92;;;0.30;;
62353;SDS011;48391;49.184;2.418;2022-07-01T10:35:53;3.30;;;0.17;;
62353;SDS011;48391;49.184;2.418;2022-07-01T10:38:28;1.33;;;0.10;;
62353;SDS011;48391;49.184;2.418;2022-07-01T10:40:54;2.60;;;0.10;;
62353;SDS011;48391;49.184;2.418;2022-07-01T10:43:33;2.10;;;0.30;;
62353;SDS011;48391;49.184;2.418;2022-07-01T10:45:59;2.58;;;0.82;;
62353;SDS011;48391;49.184;2.418;2022-07-01T10:48:26;1.00;;;0.38;;
62353;SDS011;48391;49.184;2.418;2022-07-01T10:50:52;0.65;;;0.40;;
62353;SDS011;48391;49.184;2.418;2022-07-01T10:53:18;2.47;;;1.13;;
62353;SDS011;48391;49.184;2.418;2022-07-01T10:55:46;1.50;;;0.20;;
62353;SDS011;48391;49.184;2.418;2022-07-01T10:58:12;2.45;;;0.40;;
62353;SDS011;48391;49.184;2.418;2022-07-01T11:00:42;5.25;;;0.30;;
62353;SDS011;48391;49.184;2.418;2022-07-01T11:03:26;3.63;;;0.17;;
62353;SDS011;48391;49.184;2.418;2022-07-01T11:05:53;3.35;;;0.63;;
62353;SDS011;48391;49.184;2.418;2022-07-01T11:08:20;0.95;;;0.30;;
62353;SDS011;48391;49.184;2.418;2022-07-01T11:10:49;3.30;;;0.10;;
62353;SDS011;48391;49.184;2.418;2022-07-01T11:13:15;2.45;;;0.20;;
62353;SDS011;48391;49.184;2.418;2022-07-01T11:15:44;2.85;;;0.30;;
62353;SDS011;48391;49.184;2.418;2022-07-01T11:18:11;1.40;;;0.25;;
62353;SDS011;48391;49.184;2.418;2022-07-01T11:20:38;0.98;;;0.20;;
62353;SDS011;48391;49.184;2.418;2022-07-01T11:23:04;2.78;;;0.50;;
62353;SDS011;48391;49.184;2.418;2022-07-01T11:25:30;1.50;;;0.13;;
62353;SDS011;48391;49.184;2.418;2022-07-01T11:27:56;3.10;;;0.30;;
62353;SDS011;48391;49.184;2.418;2022-07-01T11:30:22;0.30;;;0.15;;
62353;SDS011;48391;49.184;2.418;2022-07-01T11:32:50;0.47;;;0.10;;
62353;SDS011;48391;49.184;2.418;2022-07-01T11:35:17;1.08;;;0.05;;
62353;SDS011;48391;49.184;2.418;2022-07-01T11:38:06;1.80;;;0.20;;
62353;SDS011;48391;49.184;2.418;2022-07-01T11:40:51;3.28;;;0.13;;
62353;SDS011;48391;49.184;2.418;2022-07-01T11:43:24;2.70;;;0.20;;
62353;SDS011;48391;49.184;2.418;2022-07-01T11:45:51;0.80;;;0.30;;
62353;SDS011;48391;49.184;2.418;2022-07-01T11:51:05;0.28;;;0.00;;
62353;SDS011;48391;49.184;2.418;2022-07-01T11:53:31;0.63;;;0.10;;
62353;SDS011;48391;49.184;2.418;2022-07-01T11:55:58;1.60;;;0.30;;
62353;SDS011;48391;49.184;2.418;2022-07-01T11:58:24;0.82;;;0.08;;
62353;SDS011;48391;49.184;2.418;2022-07-01T12:01:05;0.63;;;0.20;;
62353;SDS011;48391;49.184;2.418;2022-07-01T12:03:33;1.92;;;0.20;;
62353;SDS011;48391;49.184;2.418;2022-07-01T12:05:59;0.57;;;0.20;;
62353;SDS011;48391;49.184;2.418;2022-07-01T12:08:25;0.80;;;0.00;;
62353;SDS011;48391;49.184;2.418;2022-07-01T12:10:52;1.85;;;0.57;;
62353;SDS011;48391;49.184;2.418;2022-07-01T12:13:22;1.45;;;0.10;;
62353;SDS011;48391;49.184;2.418;2022-07-01T12:15:49;2.80;;;0.45;;
62353;SDS011;48391;49.184;2.418;2022-07-01T12:18:15;0.57;;;0.10;;
62353;SDS011;48391;49.184;2.418;2022-07-01T12:20:54;1.15;;;0.15;;
62353;SDS011;48391;49.184;2.418;2022-07-01T12:23:20;0.50;;;0.10;;
62353;SDS011;48391;49.184;2.418;2022-07-01T12:25:49;1.13;;;0.10;;
62353;SDS011;48391;49.184;2.418;2022-07-01T12:33:49;0.60;;;0.10;;
62353;SDS011;48391;49.184;2.418;2022-07-01T12:36:15;0.30;;;0.03;;
62353;SDS011;48391;49.184;2.418;2022-07-01T12:38:42;1.35;;;0.20;;
62353;SDS011;48391;49.184;2.418;2022-07-01T12:43:53;0.40;;;0.00;;
62353;SDS011;48391;49.184;2.418;2022-07-01T12:46:29;2.55;;;0.10;;
62353;SDS011;48391;49.184;2.418;2022-07-01T12:48:55;0.32;;;0.10;;
62353;SDS011;48391;49.184;2.418;2022-07-01T12:51:27;2.08;;;0.10;;
62353;SDS011;48391;49.184;2.418;2022-07-01T12:53:53;2.00;;;0.10;;
62353;SDS011;48391;49.184;2.418;2022-07-01T12:56:23;2.05;;;0.10;;
62353;SDS011;48391;49.184;2.418;2022-07-01T12:58:53;1.00;;;0.10;;
62353;SDS011;48391;49.184;2.418;2022-07-01T13:01:19;1.27;;;0.10;;
62353;SDS011;48391;49.184;2.418;2022-07-01T13:03:46;1.80;;;0.20;;
62353;SDS011;48391;49.184;2.418;2022-07-01T13:06:12;0.10;;;0.10;;
62353;SDS011;48391;49.184;2.418;2022-07-01T13:08:38;1.13;;;0.52;;
62353;SDS011;48391;49.184;2.418;2022-07-01T13:11:04;0.30;;;0.10;;
62353;SDS011;48391;49.184;2.418;2022-07-01T13:13:33;0.60;;;0.20;;
62353;SDS011;48391;49.184;2.418;2022-07-01T13:15:59;0.75;;;0.03;;
62353;SDS011;48391;49.184;2.418;2022-07-01T13:18:25;1.15;;;0.10;;
62353;SDS011;48391;49.184;2.418;2022-07-01T13:20:54;0.10;;;0.00;;
62353;SDS011;48391;49.184;2.418;2022-07-01T13:23:20;2.00;;;0.20;;
62353;SDS011;48391;49.184;2.418;2022-07-01T13:25:46;0.03;;;0.00;;
62353;SDS011;48391;49.184;2.418;2022-07-01T13:28:12;0.88;;;0.10;;
62353;SDS011;48391;49.184;2.418;2022-07-01T13:30:38;6.05;;;0.20;;
62353;SDS011;48391;49.184;2.418;2022-07-01T13:33:04;5.15;;;0.17;;
62353;SDS011;48391;49.184;2.418;2022-07-01T13:35:30;3.75;;;0.28;;
62353;SDS011;48391;49.184;2.418;2022-07-01T13:37:56;2.40;;;0.05;;
62353;SDS011;48391;49.184;2.418;2022-07-01T13:40:22;0.70;;;0.20;;
62353;SDS011;48391;49.184;2.418;2022-07-01T13:42:48;0.55;;;0.20;;
62353;SDS011;48391;49.184;2.418;2022-07-01T13:45:14;3.83;;;0.10;;
62353;SDS011;48391;49.184;2.418;2022-07-01T13:47:40;1.33;;;0.15;;
62353;SDS011;48391;49.184;2.418;2022-07-01T13:50:07;0.40;;;0.05;;
62353;SDS011;48391;49.184;2.418;2022-07-01T13:52:33;0.63;;;0.08;;
62353;SDS011;48391;49.184;2.418;2022-07-01T13:54:59;2.20;;;0.10;;
62353;SDS011;48391;49.184;2.418;2022-07-01T13:57:26;0.08;;;0.08;;
62353;SDS011;48391;49.184;2.418;2022-07-01T13:59:52;0.55;;;0.10;;
62353;SDS011;48391;49.184;2.418;2022-07-01T14:02:19;1.60;;;0.25;;
62353;SDS011;48391;49.184;2.418;2022-07-01T14:04:46;2.90;;;0.20;;
62353;SDS011;48391;49.184;2.418;2022-07-01T14:07:12;0.75;;;0.22;;
62353;SDS011;48391;49.184;2.418;2022-07-01T14:09:38;1.02;;;0.20;;
62353;SDS011;48391;49.184;2.418;2022-07-01T14:12:05;0.22;;;0.03;;
62353;SDS011;48391;49.184;2.418;2022-07-01T14:14:32;2.75;;;0.10;;
62353;SDS011;48391;49.184;2.418;2022-07-01T14:16:58;1.13;;;0.35;;
62353;SDS011;48391;49.184;2.418;2022-07-01T14:19:24;0.20;;;0.10;;
62353;SDS011;48391;49.184;2.418;2022-07-01T14:21:51;0.50;;;0.10;;
62353;SDS011;48391;49.184;2.418;2022-07-01T14:24:17;2.83;;;0.10;;
62353;SDS011;48391;49.184;2.418;2022-07-01T14:26:43;2.80;;;0.43;;
62353;SDS011;48391;49.184;2.418;2022-07-01T14:29:09;0.75;;;0.10;;
62353;SDS011;48391;49.184;2.418;2022-07-01T14:31:35;0.20;;;0.10;;
62353;SDS011;48391;49.184;2.418;2022-07-01T14:34:01;0.93;;;0.00;;
62353;SDS011;48391;49.184;2.418;2022-07-01T14:36:27;1.17;;;0.57;;
62353;SDS011;48391;49.184;2.418;2022-07-01T14:38:53;2.33;;;0.10;;
62353;SDS011;48391;49.184;2.418;2022-07-01T14:41:20;0.38;;;0.10;;
62353;SDS011;48391;49.184;2.418;2022-07-01T14:43:46;1.65;;;0.38;;
62353;SDS011;48391;49.184;2.418;2022-07-01T14:46:15;2.22;;;0.63;;
62353;SDS011;48391;49.184;2.418;2022-07-01T14:48:41;1.48;;;0.10;;
62353;SDS011;48391;49.184;2.418;2022-07-01T14:51:10;0.22;;;0.00;;
62353;SDS011;48391;49.184;2.418;2022-07-01T14:53:52;0.73;;;0.03;;
62353;SDS011;48391;49.184;2.418;2022-07-01T14:56:18;0.52;;;0.10;;
62353;SDS011;48391;49.184;2.418;2022-07-01T14:58:44;0.20;;;0.20;;
62353;SDS011;48391;49.184;2.418;2022-07-01T15:01:10;1.55;;;0.35;;
62353;SDS011;48391;49.184;2.418;2022-07-01T15:03:36;0.52;;;0.05;;
62353;SDS011;48391;49.184;2.418;2022-07-01T15:06:03;0.98;;;0.00;;
62353;SDS011;48391;49.184;2.418;2022-07-01T15:08:29;1.50;;;0.10;;
62353;SDS011;48391;49.184;2.418;2022-07-01T15:10:54;0.52;;;0.00;;
62353;SDS011;48391;49.184;2.418;2022-07-01T15:13:28;0.30;;;0.00;;
62353;SDS011;48391;49.184;2.418;2022-07-01T15:15:55;0.75;;;0.20;;
62353;SDS011;48391;49.184;2.418;2022-07-01T15:18:21;0.82;;;0.17;;
62353;SDS011;48391;49.184;2.418;2022-07-01T15:20:50;1.55;;;0.25;;
62353;SDS011;48391;49.184;2.418;2022-07-01T15:23:16;0.52;;;0.00;;
62353;SDS011;48391;49.184;2.418;2022-07-01T15:25:42;0.32;;;0.10;;
62353;SDS011;48391;49.184;2.418;2022-07-01T15:28:08;0.30;;;0.10;;
62353;SDS011;48391;49.184;2.418;2022-07-01T15:30:34;1.10;;;0.10;;
62353;SDS011;48391;49.184;2.418;2022-07-01T15:33:00;1.73;;;0.32;;
62353;SDS011;48391;49.184;2.418;2022-07-01T15:35:26;2.42;;;0.10;;
62353;SDS011;48391;49.184;2.418;2022-07-01T15:37:52;0.40;;;0.17;;
62353;SDS011;48391;49.184;2.418;2022-07-01T15:40:21;0.88;;;0.10;;
62353;SDS011;48391;49.184;2.418;2022-07-01T15:42:47;0.10;;;0.00;;
62353;SDS011;48391;49.184;2.418;2022-07-01T15:45:13;0.75;;;0.13;;
62353;SDS011;48391;49.184;2.418;2022-07-01T15:47:39;1.90;;;0.00;;
62353;SDS011;48391;49.184;2.418;2022-07-01T15:50:23;0.50;;;0.10;;
62353;SDS011;48391;49.184;2.418;2022-07-01T15:52:50;0.73;;;0.20;;
62353;SDS011;48391;49.184;2.418;2022-07-01T15:55:16;0.65;;;0.10;;
62353;SDS011;48391;49.184;2.418;2022-07-01T15:57:43;2.78;;;0.22;;
62353;SDS011;48391;49.184;2.418;2022-07-01T16:00:09;0.57;;;0.20;;
62353;SDS011;48391;49.184;2.418;2022-07-01T16:02:38;1.92;;;0.20;;
62353;SDS011;48391;49.184;2.418;2022-07-01T16:05:04;0.75;;;0.20;;
62353;SDS011;48391;49.184;2.418;2022-07-01T16:07:30;0.28;;;0.10;;
62353;SDS011;48391;49.184;2.418;2022-07-01T16:10:03;2.22;;;0.28;;
62353;SDS011;48391;49.184;2.418;2022-07-01T16:12:31;0.85;;;0.10;;
62353;SDS011;48391;49.184;2.418;2022-07-01T16:14:58;1.77;;;0.10;;
62353;SDS011;48391;49.184;2.418;2022-07-01T16:17:24;1.80;;;0.10;;
62353;SDS011;48391;49.184;2.418;2022-07-01T16:19:52;3.17;;;0.20;;
62353;SDS011;48391;49.184;2.418;2022-07-01T16:22:19;1.65;;;0.10;;
62353;SDS011;48391;49.184;2.418;2022-07-01T16:24:48;0.55;;;0.25;;
62353;SDS011;48391;49.184;2.418;2022-07-01T16:27:14;3.05;;;0.20;;
62353;SDS011;48391;49.184;2.418;2022-07-01T16:29:41;2.28;;;0.10;;
62353;SDS011;48391;49.184;2.418;2022-07-01T16:32:07;1.08;;;0.30;;
62353;SDS011;48391;49.184;2.418;2022-07-01T16:34:33;0.10;;;0.00;;
62353;SDS011;48391;49.184;2.418;2022-07-01T16:37:02;2.08;;;0.10;;
62353;SDS011;48391;49.184;2.418;2022-07-01T16:39:29;1.35;;;0.13;;
62353;SDS011;48391;49.184;2.418;2022-07-01T16:42:02;3.55;;;0.65;;
62353;SDS011;48391;49.184;2.418;2022-07-01T16:46:58;0.30;;;0.10;;
62353;SDS011;48391;49.184;2.418;2022-07-01T16:49:25;1.05;;;0.20;;
62353;SDS011;48391;49.184;2.418;2022-07-01T16:51:55;0.50;;;0.10;;
62353;SDS011;48391;49.184;2.418;2022-07-01T16:54:23;1.00;;;0.00;;
62353;SDS011;48391;49.184;2.418;2022-07-01T16:56:50;1.42;;;0.20;;
62353;SDS011;48391;49.184;2.418;2022-07-01T16:59:18;0.60;;;0.10;;
62353;SDS011;48391;49.184;2.418;2022-07-01T17:01:46;0.30;;;0.10;;
62353;SDS011;48391;49.184;2.418;2022-07-01T17:04:13;0.25;;;0.00;;
62353;SDS011;48391;49.184;2.418;2022-07-01T17:06:41;0.90;;;0.10;;
62353;SDS011;48391;49.184;2.418;2022-07-01T17:09:07;1.75;;;0.45;;
62353;SDS011;48391;49.184;2.418;2022-07-01T17:11:34;2.28;;;0.03;;
62353;SDS011;48391;49.184;2.418;2022-07-01T17:14:00;1.65;;;0.20;;
62353;SDS011;48391;49.184;2.418;2022-07-01T17:16:27;2.45;;;0.40;;
62353;SDS011;48391;49.184;2.418;2022-07-01T17:18:54;2.03;;;0.20;;
62353;SDS011;48391;49.184;2.418;2022-07-01T17:21:21;0.35;;;0.10;;
62353;SDS011;48391;49.184;2.418;2022-07-01T17:23:54;0.65;;;0.10;;
62353;SDS011;48391;49.184;2.418;2022-07-01T17:26:21;0.88;;;0.22;;
62353;SDS011;48391;49.184;2.418;2022-07-01T17:28:50;2.35;;;0.10;;
62353;SDS011;48391;49.184;2.418;2022-07-01T17:31:38;0.65;;;0.10;;
62353;SDS011;48391;49.184;2.418;2022-07-01T17:34:06;0.52;;;0.20;;
62353;SDS011;48391;49.184;2.418;2022-07-01T17:36:34;0.88;;;0.10;;
62353;SDS011;48391;49.184;2.418;2022-07-01T17:39:11;1.73;;;0.00;;
62353;SDS011;48391;49.184;2.418;2022-07-01T17:41:40;0.47;;;0.10;;
62353;SDS011;48391;49.184;2.418;2022-07-01T17:44:08;1.10;;;0.20;;
62353;SDS011;48391;49.184;2.418;2022-07-01T17:46:35;2.95;;;0.60;;
62353;SDS011;48391;49.184;2.418;2022-07-01T17:49:02;0.45;;;0.17;;
62353;SDS011;48391;49.184;2.418;2022-07-01T17:51:28;0.65;;;0.10;;
62353;SDS011;48391;49.184;2.418;2022-07-01T17:53:54;0.20;;;0.10;;
62353;SDS011;48391;49.184;2.418;2022-07-01T17:56:21;1.02;;;0.10;;
62353;SDS011;48391;49.184;2.418;2022-07-01T17:58:48;0.90;;;0.30;;
62353;SDS011;48391;49.184;2.418;2022-07-01T18:01:15;0.95;;;0.43;;
62353;SDS011;48391;49.184;2.418;2022-07-01T18:03:42;0.38;;;0.10;;
62353;SDS011;48391;49.184;2.418;2022-07-01T18:06:09;0.30;;;0.17;;
62353;SDS011;48391;49.184;2.418;2022-07-01T18:08:35;1.48;;;1.38;;
62353;SDS011;48391;49.184;2.418;2022-07-01T18:16:16;0.22;;;0.05;;
62353;SDS011;48391;49.184;2.418;2022-07-01T18:18:45;3.20;;;0.20;;
62353;SDS011;48391;49.184;2.418;2022-07-01T18:21:15;1.20;;;0.20;;
62353;SDS011;48391;49.184;2.418;2022-07-01T18:23:45;0.30;;;0.03;;
62353;SDS011;48391;49.184;2.418;2022-07-01T18:26:13;0.55;;;0.00;;
62353;SDS011;48391;49.184;2.418;2022-07-01T18:31:12;3.03;;;0.22;;
62353;SDS011;48391;49.184;2.418;2022-07-01T18:33:42;0.50;;;0.05;;
62353;SDS011;48391;49.184;2.418;2022-07-01T18:36:11;0.32;;;0.10;;
62353;SDS011;48391;49.184;2.418;2022-07-01T18:38:38;1.13;;;0.32;;
62353;SDS011;48391;49.184;2.418;2022-07-01T18:41:05;1.08;;;0.20;;
62353;SDS011;48391;49.184;2.418;2022-07-01T18:43:31;3.22;;;0.40;;
62353;SDS011;48391;49.184;2.418;2022-07-01T18:45:58;0.85;;;0.45;;
62353;SDS011;48391;49.184;2.418;2022-07-01T18:48:24;2.90;;;0.25;;
62353;SDS011;48391;49.184;2.418;2022-07-01T18:50:50;0.70;;;0.52;;
62353;SDS011;48391;49.184;2.418;2022-07-01T18:53:16;0.60;;;0.43;;
62353;SDS011;48391;49.184;2.418;2022-07-01T18:55:42;2.00;;;0.40;;
62353;SDS011;48391;49.184;2.418;2022-07-01T18:58:08;0.52;;;0.25;;
62353;SDS011;48391;49.184;2.418;2022-07-01T19:00:37;1.75;;;0.30;;
62353;SDS011;48391;49.184;2.418;2022-07-01T19:03:03;0.75;;;0.20;;
62353;SDS011;48391;49.184;2.418;2022-07-01T19:05:29;0.30;;;0.30;;
62353;SDS011;48391;49.184;2.418;2022-07-01T19:07:55;1.00;;;0.20;;
62353;SDS011;48391;49.184;2.418;2022-07-01T19:10:21;0.50;;;0.40;;
62353;SDS011;48391;49.184;2.418;2022-07-01T19:12:47;0.28;;;0.22;;
62353;SDS011;48391;49.184;2.418;2022-07-01T19:15:13;1.98;;;0.20;;
62353;SDS011;48391;49.184;2.418;2022-07-01T19:17:39;1.45;;;0.40;;
62353;SDS011;48391;49.184;2.418;2022-07-01T19:20:06;0.60;;;0.10;;
62353;SDS011;48391;49.184;2.418;2022-07-01T19:22:32;0.45;;;0.15;;
62353;SDS011;48391;49.184;2.418;2022-07-01T19:24:59;1.67;;;0.45;;
62353;SDS011;48391;49.184;2.418;2022-07-01T19:27:26;3.08;;;0.30;;
62353;SDS011;48391;49.184;2.418;2022-07-01T19:29:52;1.30;;;0.20;;
62353;SDS011;48391;49.184;2.418;2022-07-01T19:32:18;0.98;;;0.50;;
62353;SDS011;48391;49.184;2.418;2022-07-01T19:34:46;1.73;;;0.88;;
62353;SDS011;48391;49.184;2.418;2022-07-01T19:37:12;1.48;;;0.73;;
62353;SDS011;48391;49.184;2.418;2022-07-01T19:39:43;0.90;;;0.38;;
62353;SDS011;48391;49.184;2.418;2022-07-01T19:42:10;1.02;;;0.30;;
62353;SDS011;48391;49.184;2.418;2022-07-01T19:44:36;2.90;;;0.30;;
62353;SDS011;48391;49.184;2.418;2022-07-01T19:47:03;0.98;;;0.30;;
62353;SDS011;48391;49.184;2.418;2022-07-01T19:49:29;2.15;;;0.30;;
62353;SDS011;48391;49.184;2.418;2022-07-01T19:51:55;0.88;;;0.70;;
62353;SDS011;48391;49.184;2.418;2022-07-01T19:54:21;1.75;;;0.10;;
62353;SDS011;48391;49.184;2.418;2022-07-01T19:56:52;0.20;;;0.20;;
62353;SDS011;48391;49.184;2.418;2022-07-01T19:59:18;0.73;;;0.10;;
62353;SDS011;48391;49.184;2.418;2022-07-01T20:01:50;0.30;;;0.13;;
62353;SDS011;48391;49.184;2.418;2022-07-01T20:04:16;0.28;;;0.20;;
62353;SDS011;48391;49.184;2.418;2022-07-01T20:06:42;1.70;;;0.25;;
62353;SDS011;48391;49.184;2.418;2022-07-01T20:09:08;1.30;;;0.30;;
62353;SDS011;48391;49.184;2.418;2022-07-01T20:11:34;1.17;;;0.40;;
62353;SDS011;48391;49.184;2.418;2022-07-01T20:14:00;0.22;;;0.00;;